createdAt,value
2022-08-19T00:01:38.026Z,17.48
2022-08-19T00:04:07.569Z,18.40
2022-08-19T00:06:35.152Z,18.25
2022-08-19T00:09:02.173Z,19.05
2022-08-19T00:11:28.846Z,19.00
2022-08-19T00:13:57.507Z,19.30
2022-08-19T00:16:26.412Z,19.63
2022-08-19T00:18:54.735Z,20.98
2022-08-19T00:21:21.309Z,20.10
2022-08-19T00:23:48.301Z,20.48
2022-08-19T00:26:14.834Z,19.85
2022-08-19T00:28:41.333Z,21.08
2022-08-19T00:31:08.656Z,21.00
2022-08-19T00:33:35.443Z,18.58
2022-08-19T00:36:05.463Z,20.95
2022-08-19T00:38:37.306Z,24.85
2022-08-19T00:41:05.984Z,19.50
2022-08-19T00:43:33.135Z,18.35
2022-08-19T00:45:59.876Z,18.98
2022-08-19T00:48:26.335Z,18.90
2022-08-19T00:50:56.463Z,19.75
2022-08-19T00:53:27.352Z,18.63
2022-08-19T00:55:56.041Z,18.75
2022-08-19T00:58:28.324Z,19.55
2022-08-19T01:00:55.054Z,24.92
2022-08-19T01:03:24.553Z,18.85
2022-08-19T01:05:52.916Z,20.83
2022-08-19T01:08:21.323Z,18.63
2022-08-19T01:10:53.136Z,20.33
2022-08-19T01:13:22.139Z,19.90
2022-08-19T01:15:58.384Z,19.65
2022-08-19T01:18:27.450Z,19.98
2022-08-19T01:20:57.146Z,19.02
2022-08-19T01:23:43.268Z,18.60
2022-08-19T01:26:15.955Z,20.67
2022-08-19T01:28:45.269Z,20.30
2022-08-19T01:31:27.422Z,20.63
2022-08-19T01:33:56.258Z,21.83
2022-08-19T01:36:30.771Z,20.83
2022-08-19T01:38:59.145Z,21.42
2022-08-19T01:41:25.975Z,21.08
2022-08-19T01:44:17.127Z,21.90
2022-08-19T01:46:40.572Z,23.33
2022-08-19T01:49:08.369Z,24.27
2022-08-19T01:51:39.578Z,22.80
2022-08-19T01:54:07.841Z,23.10
2022-08-19T01:56:34.331Z,23.15
2022-08-19T01:59:04.808Z,24.40
2022-08-19T02:01:32.898Z,24.88
2022-08-19T02:04:01.585Z,22.58
2022-08-19T02:06:28.832Z,24.05
2022-08-19T02:08:57.369Z,23.65
2022-08-19T02:11:34.413Z,23.27
2022-08-19T02:14:04.606Z,24.10
2022-08-19T02:16:31.629Z,25.50
2022-08-19T02:19:01.386Z,25.58
2022-08-19T02:21:28.412Z,25.55
2022-08-19T02:23:55.130Z,24.80
2022-08-19T02:26:22.539Z,24.17
2022-08-19T02:28:49.526Z,27.48
2022-08-19T02:31:19.013Z,25.73
2022-08-19T02:33:46.435Z,27.58
2022-08-19T02:36:14.407Z,24.30
2022-08-19T02:38:42.712Z,27.73
2022-08-19T02:41:20.124Z,26.45
2022-08-19T02:44:22.749Z,26.42
2022-08-19T02:46:34.571Z,24.92
2022-08-19T02:49:05.809Z,25.83
2022-08-19T02:51:41.552Z,26.45
2022-08-19T02:54:10.119Z,26.88
2022-08-19T02:56:39.283Z,29.80
2022-08-19T02:59:11.796Z,26.15
2022-08-19T03:01:40.735Z,25.23
2022-08-19T03:04:09.231Z,26.80
2022-08-19T03:06:45.348Z,28.42
2022-08-19T03:09:12.752Z,27.38
2022-08-19T03:11:39.453Z,29.35
2022-08-19T03:14:07.935Z,29.17
2022-08-19T03:16:40.560Z,28.10
2022-08-19T03:19:06.979Z,29.83
2022-08-19T03:21:34.987Z,30.38
2022-08-19T03:24:07.582Z,29.27
2022-08-19T03:26:35.045Z,30.65
2022-08-19T03:29:05.868Z,30.27
2022-08-19T03:31:43.871Z,31.95
2022-08-19T03:34:16.674Z,33.58
2022-08-19T03:36:43.176Z,33.05
2022-08-19T03:39:10.833Z,30.25
2022-08-19T03:41:45.734Z,31.00
2022-08-19T03:44:17.011Z,31.67
2022-08-19T03:46:46.672Z,34.83
2022-08-19T03:49:13.975Z,32.72
2022-08-19T03:51:42.995Z,35.28
2022-08-19T03:54:12.574Z,33.25
2022-08-19T03:56:40.152Z,32.25
2022-08-19T03:59:09.092Z,31.27
2022-08-19T04:01:36.266Z,29.42
2022-08-19T04:04:03.441Z,29.58
2022-08-19T04:06:34.900Z,29.42
2022-08-19T04:09:04.609Z,33.63
2022-08-19T04:11:43.789Z,30.42
2022-08-19T04:14:14.385Z,33.53
2022-08-19T04:16:41.026Z,35.05
2022-08-19T04:19:07.721Z,32.60
2022-08-19T04:21:34.645Z,32.67
2022-08-19T04:24:02.247Z,33.58
2022-08-19T04:26:34.825Z,31.10
2022-08-19T04:29:06.535Z,29.40
2022-08-19T04:31:37.988Z,31.67
2022-08-19T04:34:08.375Z,32.47
2022-08-19T04:36:37.289Z,29.85
2022-08-19T04:39:09.186Z,31.70
2022-08-19T04:42:11.660Z,33.40
2022-08-19T04:44:39.860Z,30.13
2022-08-19T04:47:12.891Z,29.83
2022-08-19T04:49:39.296Z,27.70
2022-08-19T04:52:05.836Z,29.70
2022-08-19T04:54:38.230Z,30.05
2022-08-19T04:57:07.740Z,26.37
2022-08-19T04:59:34.649Z,27.58
2022-08-19T05:02:01.524Z,29.63
2022-08-19T05:04:29.576Z,27.70
2022-08-19T05:07:00.066Z,34.65
2022-08-19T05:09:28.765Z,27.65
2022-08-19T05:12:15.351Z,26.95
2022-08-19T05:14:41.994Z,28.00
2022-08-19T05:17:26.702Z,27.48
2022-08-19T05:20:13.298Z,30.20
2022-08-19T05:22:40.326Z,28.40
2022-08-19T05:25:12.923Z,26.52
2022-08-19T05:27:40.202Z,26.03
2022-08-19T05:30:07.187Z,27.08
2022-08-19T05:32:33.719Z,29.63
2022-08-19T05:35:00.317Z,30.95
2022-08-19T05:37:28.392Z,26.20
2022-08-19T05:39:55.765Z,26.58
2022-08-19T05:42:23.889Z,26.13
2022-08-19T05:44:51.759Z,28.50
2022-08-19T05:47:20.773Z,26.25
2022-08-19T05:49:48.254Z,27.13
2022-08-19T05:52:18.729Z,28.60
2022-08-19T05:54:51.470Z,26.90
2022-08-19T05:57:19.717Z,25.58
2022-08-19T05:59:49.105Z,27.05
2022-08-19T06:02:15.607Z,25.60
2022-08-19T06:04:43.821Z,26.40
2022-08-19T06:07:12.848Z,26.05
2022-08-19T06:09:41.114Z,28.13
2022-08-19T06:12:10.486Z,28.38
2022-08-19T06:14:40.236Z,23.83
2022-08-19T06:17:08.466Z,24.77
2022-08-19T06:19:34.916Z,23.90
2022-08-19T06:22:08.486Z,25.05
2022-08-19T06:24:36.111Z,24.17
2022-08-19T06:27:04.254Z,25.17
2022-08-19T06:29:31.130Z,26.73
2022-08-19T06:32:00.607Z,25.70
2022-08-19T06:34:29.797Z,29.02
2022-08-19T06:36:58.487Z,24.50
2022-08-19T06:39:28.050Z,24.67
2022-08-19T06:41:58.915Z,24.73
2022-08-19T06:44:27.656Z,22.92
2022-08-19T06:46:55.778Z,25.27
2022-08-19T06:49:23.465Z,26.13
2022-08-19T06:51:51.875Z,23.33
2022-08-19T06:54:20.099Z,25.23
2022-08-19T06:56:47.481Z,24.33
2022-08-19T06:59:17.624Z,23.15
2022-08-19T07:01:47.721Z,25.85
2022-08-19T07:04:21.845Z,23.08
2022-08-19T07:06:55.138Z,25.05
2022-08-19T07:09:22.047Z,22.77
2022-08-19T07:11:51.601Z,24.30
2022-08-19T07:14:20.390Z,21.42
2022-08-19T07:16:49.868Z,21.02
2022-08-19T07:19:18.645Z,22.52
2022-08-19T07:21:47.217Z,22.27
2022-08-19T07:24:13.765Z,21.42
2022-08-19T07:26:42.713Z,22.10
2022-08-19T07:29:10.729Z,20.58
2022-08-19T07:31:37.986Z,21.83
2022-08-19T07:34:10.291Z,20.67
2022-08-19T07:36:41.486Z,21.88
2022-08-19T07:39:20.749Z,19.58
2022-08-19T07:41:48.310Z,21.10
2022-08-19T07:44:16.674Z,21.35
2022-08-19T07:46:49.276Z,19.25
2022-08-19T07:49:20.249Z,19.00
2022-08-19T07:51:49.604Z,20.52
2022-08-19T07:54:17.000Z,18.73
2022-08-19T07:56:43.525Z,18.42
2022-08-19T07:59:10.188Z,17.33
2022-08-19T08:01:41.670Z,19.88
2022-08-19T08:04:26.969Z,16.58
2022-08-19T08:07:12.799Z,17.55
2022-08-19T08:09:42.678Z,19.35
2022-08-19T08:12:33.499Z,18.25
2022-08-19T08:15:08.279Z,16.30
2022-08-19T08:17:49.638Z,19.13
2022-08-19T08:20:18.858Z,18.83
2022-08-19T08:23:05.576Z,15.45
2022-08-19T08:25:34.207Z,20.88
2022-08-19T08:28:01.314Z,16.25
2022-08-19T08:30:32.883Z,15.65
2022-08-19T08:33:00.292Z,14.18
2022-08-19T08:35:28.948Z,13.88
2022-08-19T08:37:56.696Z,13.50
2022-08-19T08:40:28.872Z,17.90
2022-08-19T08:43:07.320Z,18.33
2022-08-19T08:45:46.397Z,14.98
2022-08-19T08:48:47.726Z,14.20
2022-08-19T08:51:31.926Z,17.67
2022-08-19T08:54:05.428Z,18.48
2022-08-19T08:59:13.685Z,15.15
2022-08-19T09:01:40.552Z,13.13
2022-08-19T09:04:08.442Z,14.50
2022-08-19T09:06:54.251Z,14.77
2022-08-19T09:09:41.999Z,12.75
2022-08-19T09:12:27.063Z,33.40
2022-08-19T09:15:02.442Z,15.50
2022-08-19T09:17:36.418Z,11.60
2022-08-19T09:20:09.405Z,12.45
2022-08-19T09:22:37.283Z,18.02
2022-08-19T09:25:06.641Z,20.70
2022-08-19T09:27:42.218Z,19.00
2022-08-19T09:30:14.434Z,11.88
2022-08-19T09:32:43.173Z,11.05
2022-08-19T09:35:10.578Z,10.13
2022-08-19T09:37:37.500Z,15.95
2022-08-19T09:40:05.463Z,12.60
2022-08-19T09:42:35.455Z,12.65
2022-08-19T09:45:04.967Z,21.42
2022-08-19T09:47:31.813Z,16.65
2022-08-19T09:49:58.978Z,10.05
2022-08-19T09:52:25.968Z,9.32
2022-08-19T09:54:59.563Z,11.60
2022-08-19T09:57:26.008Z,8.20
2022-08-19T09:59:52.434Z,9.70
2022-08-19T10:02:22.322Z,14.32
2022-08-19T10:05:07.788Z,13.77
2022-08-19T10:07:36.537Z,7.78
2022-08-19T10:10:07.693Z,12.77
2022-08-19T10:12:35.278Z,8.25
2022-08-19T10:15:02.398Z,11.43
2022-08-19T10:17:31.632Z,10.18
2022-08-19T10:20:00.894Z,9.55
2022-08-19T10:22:27.445Z,9.50
2022-08-19T10:24:54.562Z,8.60
2022-08-19T10:27:21.637Z,11.13
2022-08-19T10:29:48.927Z,8.80
2022-08-19T10:32:16.062Z,7.93
2022-08-19T10:34:48.024Z,8.70
2022-08-19T10:37:23.770Z,9.18
2022-08-19T10:39:55.485Z,7.75
2022-08-19T10:42:22.277Z,8.38
2022-08-19T10:44:49.069Z,8.23
2022-08-19T10:47:25.059Z,8.70
2022-08-19T10:50:13.457Z,10.82
2022-08-19T10:52:48.907Z,8.60
2022-08-19T10:55:36.262Z,9.13
2022-08-19T10:58:03.007Z,8.65
2022-08-19T11:00:31.719Z,10.70
2022-08-19T11:02:58.439Z,11.07
2022-08-19T11:05:24.957Z,8.98
2022-08-19T11:07:52.717Z,11.38
2022-08-19T11:10:21.777Z,9.43
2022-08-19T11:12:49.302Z,7.68
2022-08-19T11:15:16.177Z,10.73
2022-08-19T11:17:44.732Z,10.95
2022-08-19T11:20:13.509Z,10.50
2022-08-19T11:22:41.880Z,9.10
2022-08-19T11:25:11.375Z,9.80
2022-08-19T11:27:45.367Z,10.02
2022-08-19T11:30:14.326Z,8.63
2022-08-19T11:32:45.899Z,12.02
2022-08-19T11:35:15.197Z,9.50
2022-08-19T11:37:41.662Z,9.52
2022-08-19T11:40:08.871Z,8.80
2022-08-19T11:42:53.875Z,9.07
2022-08-19T11:45:20.531Z,8.68
2022-08-19T11:47:48.255Z,9.55
2022-08-19T11:50:15.969Z,8.80
2022-08-19T11:52:43.596Z,10.05
2022-08-19T11:55:10.324Z,9.15
2022-08-19T11:57:36.744Z,10.35
2022-08-19T12:00:06.894Z,8.77
2022-08-19T12:02:33.341Z,7.90
2022-08-19T12:05:03.293Z,8.63
2022-08-19T12:07:32.513Z,9.07
2022-08-19T12:09:58.919Z,9.57
2022-08-19T12:12:25.708Z,8.77
2022-08-19T12:14:57.406Z,9.52
2022-08-19T12:17:26.044Z,7.90
2022-08-19T12:19:52.633Z,9.13
2022-08-19T12:22:19.694Z,8.35
2022-08-19T12:24:46.132Z,8.48
2022-08-19T12:27:13.078Z,8.88
2022-08-19T12:29:39.791Z,9.45
2022-08-19T12:32:06.200Z,10.98
2022-08-19T12:34:33.587Z,8.52
2022-08-19T12:37:02.873Z,10.10
2022-08-19T12:39:29.282Z,8.82
2022-08-19T12:41:55.734Z,8.55
2022-08-19T12:44:28.749Z,10.02
2022-08-19T12:46:56.818Z,8.65
2022-08-19T12:49:45.706Z,8.10
2022-08-19T12:52:16.182Z,9.65
2022-08-19T12:54:44.149Z,7.80
2022-08-19T12:57:11.923Z,7.95
2022-08-19T12:59:39.425Z,7.28
2022-08-19T13:02:07.789Z,7.20
2022-08-19T13:04:37.238Z,9.68
2022-08-19T13:07:04.657Z,8.18
2022-08-19T13:09:31.096Z,8.00
2022-08-19T13:11:57.792Z,6.95
2022-08-19T13:14:24.271Z,6.90
2022-08-19T13:16:53.547Z,8.27
2022-08-19T13:19:21.990Z,6.57
2022-08-19T13:21:50.906Z,5.13
2022-08-19T13:24:31.394Z,7.00
2022-08-19T13:27:01.759Z,5.20
2022-08-19T13:29:47.117Z,4.40
2022-08-19T13:32:32.032Z,4.93
2022-08-19T13:34:58.556Z,3.88
2022-08-19T13:37:42.104Z,4.13
2022-08-19T13:40:22.582Z,5.22
2022-08-19T13:42:51.507Z,4.88
2022-08-19T13:45:23.845Z,3.65
2022-08-19T13:47:57.012Z,7.10
2022-08-19T13:50:32.327Z,5.00
2022-08-19T13:52:58.877Z,4.75
2022-08-19T13:55:26.344Z,5.30
2022-08-19T13:57:55.089Z,4.07
2022-08-19T14:00:24.814Z,5.35
2022-08-19T14:02:53.452Z,4.38
2022-08-19T14:05:21.417Z,6.97
2022-08-19T14:07:49.048Z,6.63
2022-08-19T14:10:16.389Z,4.65
2022-08-19T14:12:43.472Z,7.57
2022-08-19T14:15:12.546Z,5.55
2022-08-19T14:17:41.185Z,6.10
2022-08-19T14:20:10.745Z,5.57
2022-08-19T14:22:39.303Z,4.40
2022-08-19T14:25:08.563Z,5.30
2022-08-19T14:27:36.300Z,5.10
2022-08-19T14:30:05.034Z,4.95
2022-08-19T14:32:31.431Z,4.82
2022-08-19T14:34:57.827Z,5.53
2022-08-19T14:37:24.291Z,4.63
2022-08-19T14:39:51.776Z,4.57
2022-08-19T14:42:20.021Z,5.65
2022-08-19T14:44:46.582Z,4.78
2022-08-19T14:47:13.370Z,4.65
2022-08-19T14:49:41.217Z,5.43
2022-08-19T14:52:11.279Z,7.80
2022-08-19T14:54:37.675Z,5.57
2022-08-19T14:57:04.290Z,4.90
2022-08-19T14:59:30.741Z,6.25
2022-08-19T15:01:57.270Z,4.70
2022-08-19T15:04:23.735Z,5.82
2022-08-19T15:06:51.718Z,5.05
2022-08-19T15:09:18.193Z,5.80
2022-08-19T15:11:44.775Z,6.05
2022-08-19T15:14:11.266Z,6.32
2022-08-19T15:16:38.967Z,6.63
2022-08-19T15:19:05.391Z,6.45
2022-08-19T15:21:31.899Z,7.05
2022-08-19T15:23:59.550Z,8.13
2022-08-19T15:26:28.546Z,5.70
2022-08-19T15:28:55.033Z,5.78
2022-08-19T15:31:25.369Z,6.85
2022-08-19T15:33:58.818Z,5.28
2022-08-19T15:36:27.329Z,9.40
2022-08-19T15:38:54.217Z,29.15
2022-08-19T15:41:23.948Z,6.47
2022-08-19T15:44:03.862Z,5.35
2022-08-19T15:46:33.392Z,7.03
2022-08-19T15:49:00.693Z,6.85
2022-08-19T15:51:30.323Z,6.55
2022-08-19T15:53:57.575Z,5.47
2022-08-19T15:56:27.198Z,5.38
2022-08-19T15:59:12.771Z,4.93
2022-08-19T16:01:57.663Z,5.85
2022-08-19T16:04:43.090Z,5.22
2022-08-19T16:07:10.210Z,5.45
2022-08-19T16:09:36.638Z,5.25
2022-08-19T16:12:05.852Z,5.85
2022-08-19T16:14:35.158Z,5.03
2022-08-19T16:17:01.911Z,6.32
2022-08-19T16:19:28.325Z,4.72
2022-08-19T16:21:56.393Z,6.35
2022-08-19T16:24:25.539Z,5.40
2022-08-19T16:26:52.723Z,6.18
2022-08-19T16:29:33.278Z,8.25
2022-08-19T16:32:01.034Z,5.32
2022-08-19T16:34:29.794Z,7.13
2022-08-19T16:36:56.227Z,6.43
2022-08-19T16:39:23.691Z,6.63
2022-08-19T16:41:50.963Z,5.05
2022-08-19T16:44:19.432Z,7.70
2022-08-19T16:46:57.347Z,6.57
2022-08-19T16:49:53.100Z,9.77
2022-08-19T16:52:13.019Z,5.20
2022-08-19T16:54:41.808Z,5.45
2022-08-19T16:57:11.752Z,5.13
2022-08-19T16:59:39.456Z,5.80
2022-08-19T17:02:15.337Z,4.70
2022-08-19T17:04:41.836Z,4.93
2022-08-19T17:07:09.761Z,4.65
2022-08-19T17:09:36.705Z,5.70
2022-08-19T17:12:04.708Z,6.63
2022-08-19T17:14:31.085Z,6.70
2022-08-19T17:16:57.590Z,6.95
2022-08-19T17:19:24.019Z,7.32
2022-08-19T17:21:50.446Z,5.00
2022-08-19T17:24:17.046Z,6.25
2022-08-19T17:26:43.872Z,6.55
2022-08-19T17:29:10.434Z,10.10
2022-08-19T17:31:37.361Z,7.80
2022-08-19T17:34:04.541Z,7.47
2022-08-19T17:36:32.546Z,8.15
2022-08-19T17:39:00.691Z,8.48
2022-08-19T17:41:28.723Z,9.32
2022-08-19T17:43:55.318Z,8.95
2022-08-19T17:46:21.966Z,8.77
2022-08-19T17:48:52.968Z,7.45
2022-08-19T17:51:41.933Z,11.45
2022-08-19T17:54:15.226Z,7.18
2022-08-19T17:56:42.430Z,6.75
2022-08-19T17:59:13.979Z,7.75
2022-08-19T18:01:53.591Z,6.35
2022-08-19T18:04:25.481Z,8.15
2022-08-19T18:06:54.764Z,7.18
2022-08-19T18:09:42.353Z,7.43
2022-08-19T18:12:12.748Z,7.78
2022-08-19T18:14:40.499Z,7.32
2022-08-19T18:17:13.167Z,5.55
2022-08-19T18:19:43.297Z,6.15
2022-08-19T18:22:12.725Z,6.18
2022-08-19T18:24:41.465Z,5.53
2022-08-19T18:27:07.973Z,5.38
2022-08-19T18:29:38.131Z,7.38
2022-08-19T18:32:05.496Z,8.27
2022-08-19T18:34:31.913Z,6.78
2022-08-19T18:36:58.307Z,6.72
2022-08-19T18:39:44.418Z,5.70
2022-08-19T18:42:36.925Z,6.03
2022-08-19T18:45:27.903Z,5.63
2022-08-19T18:48:26.543Z,5.38
2022-08-19T18:50:56.064Z,7.10
2022-08-19T18:53:22.503Z,9.23
2022-08-19T18:55:51.870Z,5.50
2022-08-19T18:58:18.288Z,5.40
2022-08-19T19:00:44.817Z,6.03
2022-08-19T19:03:11.688Z,7.78
2022-08-19T19:05:39.883Z,7.68
2022-08-19T19:08:07.120Z,5.88
2022-08-19T19:10:35.414Z,5.75
2022-08-19T19:13:02.012Z,5.22
2022-08-19T19:15:29.392Z,4.80
2022-08-19T19:17:56.044Z,4.50
2022-08-19T19:20:36.159Z,5.07
2022-08-19T19:23:03.746Z,4.72
2022-08-19T19:25:50.249Z,5.55
2022-08-19T19:28:16.736Z,4.65
2022-08-19T19:30:43.193Z,4.20
2022-08-19T19:33:09.608Z,4.60
2022-08-19T19:35:36.030Z,4.57
2022-08-19T19:38:02.437Z,4.05
2022-08-19T19:40:29.369Z,5.03
2022-08-19T19:42:55.893Z,7.00
2022-08-19T19:45:23.322Z,7.22
2022-08-19T19:47:50.176Z,5.13
2022-08-19T19:50:17.912Z,6.22
2022-08-19T19:52:45.893Z,4.43
2022-08-19T19:55:17.811Z,5.28
2022-08-19T19:57:48.738Z,4.95
2022-08-19T20:00:18.715Z,4.82
2022-08-19T20:02:49.279Z,6.68
2022-08-19T20:05:19.135Z,4.05
2022-08-19T20:08:03.976Z,4.90
2022-08-19T20:10:32.273Z,7.32
2022-08-19T20:13:02.321Z,4.93
2022-08-19T20:15:29.391Z,6.78
2022-08-19T20:17:55.911Z,4.00
2022-08-19T20:20:23.565Z,3.72
2022-08-19T20:22:50.027Z,5.15
2022-08-19T20:25:18.840Z,4.03
2022-08-19T20:27:49.017Z,7.53
2022-08-19T20:30:19.395Z,4.05
2022-08-19T20:32:46.883Z,3.85
2022-08-19T20:35:15.225Z,3.55
2022-08-19T20:37:41.643Z,7.20
2022-08-19T20:40:10.039Z,6.13
2022-08-19T20:42:40.349Z,3.83
2022-08-19T20:45:21.635Z,4.95
2022-08-19T20:47:58.611Z,3.70
2022-08-19T20:50:26.062Z,3.78
2022-08-19T20:52:56.418Z,3.00
2022-08-19T20:55:22.971Z,4.95
2022-08-19T20:57:50.069Z,4.18
2022-08-19T21:00:16.686Z,4.40
2022-08-19T21:02:43.096Z,4.15
2022-08-19T21:05:09.656Z,3.35
2022-08-19T21:07:39.002Z,3.85
2022-08-19T21:10:06.804Z,3.20
2022-08-19T21:12:33.524Z,3.78
2022-08-19T21:15:00.125Z,3.92
2022-08-19T21:17:26.524Z,2.92
2022-08-19T21:19:52.966Z,4.10
2022-08-19T21:22:19.412Z,4.18
2022-08-19T21:24:45.806Z,4.30
2022-08-19T21:27:12.280Z,3.30
2022-08-19T21:29:40.445Z,2.75
2022-08-19T21:32:07.055Z,3.45
2022-08-19T21:34:33.487Z,1.85
2022-08-19T21:36:59.975Z,5.40
2022-08-19T21:39:26.472Z,3.20
2022-08-19T21:41:53.038Z,2.50
2022-08-19T21:44:19.555Z,1.92
2022-08-19T21:46:45.990Z,3.78
2022-08-19T21:49:16.999Z,2.85
2022-08-19T21:51:43.413Z,3.15
2022-08-19T21:54:14.204Z,4.22
2022-08-19T21:56:41.055Z,4.18
2022-08-19T21:59:07.634Z,1.45
2022-08-19T22:01:34.151Z,2.85
2022-08-19T22:04:00.625Z,2.75
2022-08-19T22:06:27.057Z,4.50
2022-08-19T22:08:56.686Z,4.30
2022-08-19T22:11:24.729Z,2.70
2022-08-19T22:13:56.079Z,3.40
2022-08-19T22:16:24.160Z,1.38
2022-08-19T22:18:53.956Z,1.38
2022-08-19T22:21:39.654Z,2.22
2022-08-19T22:24:06.560Z,2.38
2022-08-19T22:26:33.017Z,4.25
2022-08-19T22:29:00.696Z,2.55
2022-08-19T22:31:28.527Z,19.98
2022-08-19T22:33:55.709Z,12.70
2022-08-19T22:36:22.115Z,10.73
2022-08-19T22:38:48.626Z,2.70
2022-08-19T22:41:16.242Z,4.40
2022-08-19T22:43:42.972Z,3.75
2022-08-19T22:46:16.996Z,1.10
2022-08-19T22:48:44.615Z,1.63
2022-08-19T22:51:29.388Z,1.92
2022-08-19T22:53:57.176Z,3.05
2022-08-19T22:56:23.729Z,2.10
2022-08-19T22:58:52.972Z,3.88
2022-08-19T23:01:27.255Z,1.95
2022-08-19T23:03:58.422Z,2.00
2022-08-19T23:06:26.960Z,1.20
2022-08-19T23:08:59.828Z,2.83
2022-08-19T23:11:26.326Z,1.73
2022-08-19T23:13:53.097Z,1.27
2022-08-19T23:16:19.539Z,2.45
2022-08-19T23:18:46.816Z,3.00
2022-08-19T23:21:13.419Z,3.72
2022-08-19T23:23:41.433Z,2.20
2022-08-19T23:26:11.746Z,0.98
2022-08-19T23:28:57.251Z,1.83
2022-08-19T23:31:26.493Z,1.48
2022-08-19T23:33:53.435Z,1.67
2022-08-19T23:36:21.031Z,1.42
2022-08-19T23:38:49.608Z,1.38
2022-08-19T23:41:18.555Z,1.20
2022-08-19T23:43:45.653Z,3.22
2022-08-19T23:46:27.273Z,1.10
2022-08-19T23:48:55.566Z,4.70
2022-08-19T23:51:22.061Z,1.38
2022-08-19T23:53:48.487Z,2.22
2022-08-19T23:56:14.956Z,1.73
2022-08-19T23:58:41.427Z,1.48
